Carroll, IA

10:43 PM CST on December 10, 2017 (GMT -0600)
Neu

Weather History for KCIN - January, 2014

Change the Weather History Date:

Wednesday, January 29, 2014

  Actual Average Record
Temperature  
Mean Temperature 20 °F -  
Max Temperature 41 °F 30 °F 50 °F (1976)
Min Temperature 0 °F 10 °F -26 °F (1966)
Degree Days  
Heating Degree Days 44    
Moisture  
Dew Point 1 °F    
Average Humidity 42    
Maximum Humidity 61    
Minimum Humidity 23    
Precipitation  
Precipitation 0.00 in - - ()
Sea Level Pressure  
Sea Level Pressure 29.92 in    
Wind  
Wind Speed 14 mph (SSW)    
Max Wind Speed 30 mph    
Max Gust Speed 39 mph    
Visibility 10 miles    
Events      
Averages and records for this station are not official NWS values.
T = Trace of Precipitation, MM = Missing Value Source: NWS Daily Summary

Daily Weather History Graph

Daily Weather History Graph

Search for Another Location

Airport or City:

Trip Planner

Search our weather history database for the weather conditions in past years. The results will help you decide how hot, cold, wet, or windy it might be!

Date:

Astronomy

Jan. 29, 2014 Rise Set
Actual Time 7:34 AM CST 5:30 PM CST
Civil Twilight 7:05 AM CST 6:00 PM CST
Nautical Twilight 6:31 AM CST 6:33 PM CST
Astronomical Twilight 5:58 AM CST 7:06 PM CST
Moon 6:12 AM CST (1/29) 4:30 PM CST (1/29)
Length of Visible Light 10h 54m
Length of Day
9h 55m
Waning Crescent, 2% of the Moon is Illuminated
Jan 29
Waning Crescent
Jan 30
New
Feb 6
First Quarter
Feb 14
Full
Feb 22
Last Quarter

Hourly Weather History & Observations

Time (CST) Temp. Windchill Dew Point Humidity Pressure Visibility Wind Dir Wind Speed Gust Speed Precip Events Conditions
12:15 AM 1.4 °F - -11.2 °F 56% 30.20 in 10.0 mi Calm Calm - N/A   Clear
12:35 AM 1.4 °F - -13.0 °F 51% 30.19 in 10.0 mi Calm Calm - N/A   Clear
12:55 AM -0.4 °F -10.4 °F -13.0 °F 55% 30.19 in 10.0 mi SW 4.6 mph - N/A   Clear
1:15 AM 1.4 °F -12.5 °F -11.2 °F 56% 30.18 in 10.0 mi SW 8.1 mph - N/A   Clear
1:35 AM 3.2 °F -13.1 °F -11.2 °F 51% 30.18 in 10.0 mi SW 11.5 mph - N/A   Clear
1:55 AM 3.2 °F -13.1 °F -11.2 °F 51% 30.17 in 10.0 mi SW 11.5 mph - N/A   Clear
2:15 AM 5.0 °F -13.6 °F -11.2 °F 47% 30.16 in 10.0 mi SW 16.1 mph - N/A   Clear
2:35 AM 5.0 °F -12.3 °F -9.4 °F 52% 30.16 in 10.0 mi SW 13.8 mph - N/A   Clear
2:55 AM 5.0 °F -11.6 °F -9.4 °F 52% 30.16 in 10.0 mi SW 12.7 mph - N/A   Partly Cloudy
3:15 AM 5.0 °F -12.3 °F -9.4 °F 52% 30.15 in 10.0 mi SW 13.8 mph - N/A   Clear
3:35 AM 5.0 °F -11.6 °F -9.4 °F 52% 30.13 in 10.0 mi SW 12.7 mph - N/A   Clear
3:55 AM 3.2 °F -13.9 °F -9.4 °F 56% 30.13 in 10.0 mi SW 12.7 mph - N/A   Clear
4:15 AM 3.2 °F -13.1 °F -9.4 °F 56% 30.12 in 10.0 mi SW 11.5 mph - N/A   Clear
4:35 AM 3.2 °F -13.9 °F -9.4 °F 56% 30.12 in 10.0 mi SW 12.7 mph - N/A   Clear
4:55 AM 3.2 °F -14.6 °F -9.4 °F 56% 30.11 in 10.0 mi SW 13.8 mph - N/A   Clear
5:15 AM 5.0 °F -13.0 °F -7.6 °F 56% 30.11 in 10.0 mi SW 15.0 mph - N/A   Clear
5:35 AM 5.0 °F -9.1 °F -9.4 °F 52% 30.10 in 10.0 mi SW 9.2 mph - N/A   Clear
5:55 AM 5.0 °F -10.8 °F -7.6 °F 56% 30.09 in 10.0 mi SW 11.5 mph - N/A   Clear
6:15 AM 5.0 °F -10.8 °F -7.6 °F 56% 30.09 in 10.0 mi SW 11.5 mph - N/A   Clear
6:35 AM 5.0 °F -10.8 °F -7.6 °F 56% 30.08 in 10.0 mi SW 11.5 mph - N/A   Clear
6:55 AM 5.0 °F -10.8 °F -7.6 °F 56% 30.07 in 10.0 mi SW 11.5 mph - N/A   Clear
7:15 AM 5.0 °F -11.6 °F -7.6 °F 56% 30.07 in 10.0 mi SW 12.7 mph - N/A   Clear
7:35 AM 5.0 °F -12.3 °F -7.6 °F 56% 30.07 in 10.0 mi SSW 13.8 mph - N/A   Clear
7:55 AM 5.0 °F -11.6 °F -5.8 °F 61% 30.07 in 10.0 mi SSW 12.7 mph - N/A   Clear
8:15 AM 6.8 °F -10.0 °F -5.8 °F 56% 30.06 in 10.0 mi SSW 13.8 mph - N/A   Clear
8:35 AM 8.6 °F -7.0 °F -4.0 °F 57% 30.05 in 10.0 mi SSW 12.7 mph - N/A   Clear
8:55 AM 10.4 °F -6.0 °F -2.2 °F 57% 30.04 in 10.0 mi SSW 15.0 mph - N/A   Clear
9:15 AM 14.0 °F -2.0 °F -2.2 °F 49% 30.04 in 10.0 mi SSW 16.1 mph - N/A   Clear
9:35 AM 15.8 °F 0.3 °F -0.4 °F 49% 30.03 in 10.0 mi SSW 16.1 mph - N/A   Clear
9:55 AM 17.6 °F 3.7 °F 1.4 °F 49% 30.03 in 10.0 mi SSW 13.8 mph 19.6 mph N/A   Clear
10:15 AM 21.2 °F 7.8 °F 1.4 °F 42% 30.03 in 10.0 mi SSW 15.0 mph 20.7 mph N/A   Clear
10:35 AM 23.0 °F 9.6 °F 3.2 °F 43% 30.01 in 10.0 mi SSW 16.1 mph 21.9 mph N/A   Clear
10:55 AM 26.6 °F 14.3 °F 3.2 °F 37% 30.00 in 10.0 mi SSW 16.1 mph 23.0 mph N/A   Clear
11:15 AM 28.4 °F 14.7 °F 3.2 °F 34% 29.99 in 10.0 mi SSW 21.9 mph - N/A   Clear
11:35 AM 30.2 °F 17.1 °F 1.4 °F 29% 29.97 in 10.0 mi SSW 21.9 mph 29.9 mph N/A   Clear
11:55 AM 32.0 °F 19.5 °F 1.4 °F 27% 29.96 in 10.0 mi SSW 21.9 mph 29.9 mph N/A   Clear
12:15 PM 32.0 °F 18.1 °F 1.4 °F 27% 29.94 in 10.0 mi SSW 27.6 mph 34.5 mph N/A   Clear
12:35 PM 33.8 °F 20.8 °F 3.2 °F 28% 29.93 in 10.0 mi SSW 26.5 mph 32.2 mph N/A   Clear
12:55 PM 35.6 °F 24.0 °F 5.0 °F 28% 29.90 in 10.0 mi SSW 23.0 mph 32.2 mph N/A   Clear
1:15 PM 35.6 °F 23.0 °F 5.0 °F 28% 29.88 in 10.0 mi SSW 27.6 mph - N/A   Clear
1:35 PM 37.4 °F 25.9 °F 5.0 °F 26% 29.87 in 10.0 mi SSW 25.3 mph 35.7 mph N/A   Clear
1:55 PM 37.4 °F 25.9 °F 5.0 °F 26% 29.85 in 10.0 mi SSW 25.3 mph 35.7 mph N/A   Clear
2:15 PM 39.2 °F 28.0 °F 5.0 °F 24% 29.83 in 10.0 mi SSW 26.5 mph 34.5 mph N/A   Clear
2:35 PM 41.0 °F 30.7 °F 5.0 °F 23% 29.82 in 9.0 mi SSW 25.3 mph 39.1 mph N/A   Clear
2:55 PM 41.0 °F 30.7 °F 6.8 °F 24% 29.81 in 10.0 mi SSW 25.3 mph 32.2 mph N/A   Clear
3:15 PM 41.0 °F 31.1 °F 8.6 °F 26% 29.80 in 10.0 mi SSW 23.0 mph 33.4 mph N/A   Clear
3:35 PM 41.0 °F 30.2 °F 8.6 °F 26% 29.78 in 10.0 mi SSW 27.6 mph 34.5 mph N/A   Clear
3:55 PM 39.2 °F 27.8 °F 10.4 °F 31% 29.77 in 10.0 mi SSW 27.6 mph 36.8 mph N/A   Clear
4:15 PM 41.0 °F 29.8 °F 10.4 °F 29% 29.76 in 10.0 mi SSW 29.9 mph 36.8 mph N/A   Clear
4:35 PM 39.2 °F 28.3 °F 10.4 °F 31% 29.76 in 10.0 mi SSW 25.3 mph 34.5 mph N/A   Clear
4:55 PM 39.2 °F 28.0 °F 8.6 °F 28% 29.75 in 10.0 mi SSW 26.5 mph 33.4 mph N/A   Clear
5:15 PM 37.4 °F 27.2 °F 8.6 °F 30% 29.75 in 10.0 mi SSW 19.6 mph 28.8 mph N/A   Clear
5:35 PM 37.4 °F 26.9 °F 8.6 °F 30% 29.74 in 10.0 mi SSW 20.7 mph 26.5 mph N/A   Clear
5:55 PM 35.6 °F 25.9 °F 8.6 °F 33% 29.75 in 10.0 mi SSW 16.1 mph 24.2 mph N/A   Clear
6:15 PM 35.6 °F 25.2 °F 10.4 °F 35% 29.73 in 10.0 mi SSW 18.4 mph 25.3 mph N/A   Clear
6:35 PM 33.8 °F 23.5 °F 10.4 °F 38% 29.72 in 10.0 mi South 16.1 mph - N/A   Clear
6:55 PM 33.8 °F 22.5 °F 10.4 °F 38% 29.71 in 10.0 mi SSW 19.6 mph - N/A   Clear
7:15 PM 33.8 °F 22.5 °F 10.4 °F 38% 29.71 in 10.0 mi SSW 19.6 mph 25.3 mph N/A   Clear
7:35 PM 33.8 °F 21.6 °F 10.4 °F 38% 29.69 in 10.0 mi SSW 23.0 mph 31.1 mph N/A   Clear
7:55 PM 33.8 °F 21.0 °F 10.4 °F 38% 29.68 in 10.0 mi SSW 25.3 mph 33.4 mph N/A   Clear
8:15 PM 33.8 °F 21.6 °F 10.4 °F 38% 29.68 in 10.0 mi SSW 23.0 mph 32.2 mph N/A   Clear
8:35 PM 33.8 °F 22.2 °F 10.4 °F 38% 29.68 in 10.0 mi SSW 20.7 mph 26.5 mph N/A   Clear
8:55 PM 33.8 °F 21.6 °F 10.4 °F 38% 29.66 in 10.0 mi SSW 23.0 mph - N/A   Clear
9:15 PM 33.8 °F 22.8 °F 10.4 °F 38% 29.66 in 10.0 mi SSW 18.4 mph 27.6 mph N/A   Clear
9:35 PM 33.8 °F 21.6 °F 10.4 °F 38% 29.65 in 10.0 mi SSW 23.0 mph 31.1 mph N/A   Clear
9:55 PM 33.8 °F 22.8 °F 8.6 °F 35% 29.65 in 10.0 mi SSW 18.4 mph 27.6 mph N/A   Clear
10:15 PM 33.8 °F 22.5 °F 10.4 °F 38% 29.64 in 10.0 mi SSW 19.6 mph 28.8 mph N/A   Clear
10:35 PM 33.8 °F 21.3 °F 8.6 °F 35% 29.62 in 10.0 mi SSW 24.2 mph 32.2 mph N/A   Clear
10:55 PM 33.8 °F 21.9 °F 8.6 °F 35% 29.62 in 10.0 mi SSW 21.9 mph 29.9 mph N/A   Clear
11:15 PM 33.8 °F 21.3 °F 8.6 °F 35% 29.61 in 10.0 mi SSW 24.2 mph 33.4 mph N/A   Clear
11:35 PM 35.6 °F 23.4 °F 8.6 °F 33% 29.60 in 10.0 mi SSW 25.3 mph - N/A   Clear
11:55 PM 35.6 °F 23.7 °F 8.6 °F 33% 29.58 in 10.0 mi SSW 24.2 mph 34.5 mph N/A   Clear